NORTHERN QUEENS  -  Air Quality Alert Air Quality Alert        SOUTHERN QUEENS  -  Air Quality Alert Air Quality Alert      

Active alerts

Northern Queens
  Details for Northern Queens Air Quality Alert
Southern Queens
  Details for Southern Queens Air Quality Alert


WXM80 ListenWXM80 Stop

You find our weather info also at:

UK Metoffice

WeatherCloud

Weather Underground

Northeastern Weather Network

AWEKAS

Citizen Weather Observer Program (CWOP)

HAMweather, WeatherForYou, PWS Weather


Weather Underground History page Text

Daily Summary for March 3, 2017 Units:  Metric    English   Both
« Previous Day
Next Day »
Daily Weekly Monthly Yearly Custom
  High: Low: Average:
Temperature: 4.2 °C -3.8 °C 0.8 °C
Dew Point: -6.6 °C -14.4 °C -9.2 °C
Humidity: 60 % 32 % 48 %
Wind Speed: 26.4 km/h 2.1 km/h 10.6 km/h
Wind Gust: 51.8 km/h - -
Wind:- - WNW
Pressure: 1029 hPa 1017.5 hPa -
Precipitation: 0 mm    
Historical Graphs
 
 
Tabular Data for March 3, 2017
Time Temperature Dew Point Pressure Wind Wind Speed Wind Gust Humidity Rainfall Rate (Hourly)
00:03 1.9 °C -8.2 °C 1017.5 hPa WNW 10.3 km/h 25.9 km/h 47 % 0 mm
00:08 1.9 °C -8.2 °C 1017.8 hPa WNW 9.7 km/h 20.9 km/h 47 % 0 mm
00:13 1.8 °C -8.6 °C 1017.5 hPa WNW 11.1 km/h 22.2 km/h 46 % 0 mm
00:18 1.8 °C -8.6 °C 1017.5 hPa NW 13.4 km/h 18.5 km/h 46 % 0 mm
00:23 1.8 °C -8.4 °C 1017.5 hPa WNW 11.3 km/h 29 km/h 47 % 0 mm
00:28 1.7 °C -8.7 °C 1017.8 hPa WNW 12.9 km/h 29 km/h 46 % 0 mm
00:33 1.7 °C -8.2 °C 1017.8 hPa WNW 8 km/h 19.3 km/h 48 % 0 mm
00:38 1.6 °C -8.8 °C 1017.8 hPa WNW 12.9 km/h 25.7 km/h 46 % 0 mm
00:43 1.6 °C -8.3 °C 1017.8 hPa WNW 12.9 km/h 24.1 km/h 48 % 0 mm
00:48 1.5 °C -7.6 °C 1017.8 hPa WNW 11.3 km/h 19.3 km/h 51 % 0 mm
00:53 1.4 °C -7.9 °C 1017.8 hPa WSW 8.9 km/h 24.1 km/h 50 % 0 mm
00:58 1.4 °C -7.9 °C 1017.8 hPa NNW 8.9 km/h 27.8 km/h 50 % 0 mm
01:03 1.3 °C -7.9 °C 1017.8 hPa WNW 8.9 km/h 22.2 km/h 50 % 0 mm
01:08 1.3 °C -8.3 °C 1018.2 hPa North 7.7 km/h 20.4 km/h 49 % 0 mm
01:13 1.2 °C -8.3 °C 1018.2 hPa WNW 15.9 km/h 25.9 km/h 49 % 0 mm
01:18 1.2 °C -8.4 °C 1018.2 hPa NNW 8.4 km/h 24.1 km/h 49 % 0 mm
01:23 1.1 °C -8.4 °C 1018.2 hPa North 12.1 km/h 22.2 km/h 49 % 0 mm
01:28 1.1 °C -8.5 °C 1018.5 hPa WSW 11.9 km/h 24.1 km/h 49 % 0 mm
01:33 1.1 °C -8.7 °C 1018.5 hPa WNW 7.7 km/h 14.8 km/h 48 % 0 mm
01:38 1 °C -8.6 °C 1018.5 hPa WNW 6.8 km/h 18.5 km/h 49 % 0 mm
01:43 0.9 °C -8.8 °C 1018.5 hPa NW 9.3 km/h 24.1 km/h 48 % 0 mm
01:48 0.8 °C -8.7 °C 1018.5 hPa WSW 10.3 km/h 20.9 km/h 49 % 0 mm
01:53 0.8 °C -9 °C 1018.5 hPa WNW 7.1 km/h 14.8 km/h 48 % 0 mm
01:58 0.7 °C -9.3 °C 1018.5 hPa West 7.1 km/h 18.5 km/h 47 % 0 mm
02:03 0.7 °C -9.1 °C 1018.5 hPa NW 8.9 km/h 22.2 km/h 48 % 0 mm
02:08 0.6 °C -9.2 °C 1018.5 hPa West 8.7 km/h 24.1 km/h 48 % 0 mm
02:13 0.6 °C -9.2 °C 1018.5 hPa West 10.8 km/h 24.1 km/h 48 % 0 mm
02:18 0.5 °C -9 °C 1018.5 hPa West 10.8 km/h 19.3 km/h 49 % 0 mm
02:24 0.4 °C -9.1 °C 1018.5 hPa WNW 8 km/h 13 km/h 49 % 0 mm
02:29 0.4 °C -8.8 °C 1018.5 hPa West 5.5 km/h 16.7 km/h 50 % 0 mm
02:34 0.3 °C -8.7 °C 1018.5 hPa NW 6.4 km/h 14.8 km/h 51 % 0 mm
02:39 0.3 °C -8.9 °C 1018.5 hPa West 10.3 km/h 17.7 km/h 50 % 0 mm
02:44 0.3 °C -8.9 °C 1018.5 hPa West 9.2 km/h 20.4 km/h 50 % 0 mm
02:49 0.3 °C -8.7 °C 1018.5 hPa West 2.1 km/h 5.6 km/h 51 % 0 mm
02:54 0.2 °C -8.7 °C 1018.5 hPa NW 10.8 km/h 18.5 km/h 51 % 0 mm
02:59 0.2 °C -8.8 °C 1018.5 hPa WSW 10 km/h 14.8 km/h 51 % 0 mm
03:04 0.2 °C -8.8 °C 1018.5 hPa WNW 3.7 km/h 11.1 km/h 51 % 0 mm
03:09 0.1 °C -8.3 °C 1018.5 hPa SW 3.5 km/h 9.7 km/h 53 % 0 mm
03:14 0.1 °C -8.7 °C 1018.5 hPa NW 7.7 km/h 19.3 km/h 52 % 0 mm
03:19 0 °C -8.4 °C 1018.5 hPa NW 10.5 km/h 16.1 km/h 53 % 0 mm
03:24 0 °C -8.7 °C 1018.5 hPa WNW 9.2 km/h 14.8 km/h 52 % 0 mm
03:30 -0.1 °C -8.5 °C 1018.8 hPa WNW 10 km/h 16.7 km/h 53 % 0 mm
03:35 -0.1 °C -8.8 °C 1018.8 hPa WSW 13 km/h 18.5 km/h 52 % 0 mm
03:40 -0.1 °C -8.6 °C 1018.8 hPa NW 9.5 km/h 18.5 km/h 53 % 0 mm
03:45 -0.2 °C -8.8 °C 1018.8 hPa NW 9.8 km/h 25.9 km/h 52 % 0 mm
03:50 -0.2 °C -8.7 °C 1018.8 hPa NW 15.4 km/h 18.5 km/h 53 % 0 mm
03:55 -0.2 °C -8.4 °C 1019.2 hPa WSW 11.6 km/h 20.4 km/h 54 % 0 mm
04:00 -0.2 °C -8.4 °C 1018.8 hPa WSW 5.1 km/h 13 km/h 54 % 0 mm
04:05 -0.3 °C -8.7 °C 1019.2 hPa WNW 12.7 km/h 25.9 km/h 53 % 0 mm
04:10 -0.4 °C -9.1 °C 1019.2 hPa NW 10.9 km/h 18.5 km/h 52 % 0 mm
04:15 -0.4 °C -8.9 °C 1019.2 hPa NW 9.8 km/h 18.5 km/h 53 % 0 mm
04:20 -0.5 °C -8.4 °C 1019.2 hPa NW 3.2 km/h 5.6 km/h 55 % 0 mm
04:25 -0.5 °C -8.9 °C 1019.5 hPa NW 10.8 km/h 18.5 km/h 53 % 0 mm
04:30 -0.6 °C -8.7 °C 1019.2 hPa WNW 7.7 km/h 14.8 km/h 54 % 0 mm
04:35 -0.6 °C -8.7 °C 1019.5 hPa NW 7.7 km/h 18.5 km/h 54 % 0 mm
04:41 -0.6 °C -8.6 °C 1019.5 hPa WSW 9.5 km/h 16.7 km/h 55 % 0 mm
04:46 -0.7 °C -8.6 °C 1019.5 hPa NW 9.2 km/h 25.9 km/h 55 % 0 mm
04:51 -0.7 °C -8.7 °C 1019.5 hPa NW 12.4 km/h 27.8 km/h 55 % 0 mm
04:56 -0.7 °C -8.7 °C 1019.5 hPa WNW 12.1 km/h 18.5 km/h 55 % 0 mm
05:01 -0.7 °C -8.4 °C 1019.5 hPa WSW 9.2 km/h 20.4 km/h 56 % 0 mm
05:06 -0.8 °C -8.7 °C 1019.9 hPa NW 8.9 km/h 25.9 km/h 55 % 0 mm
05:11 -0.8 °C -8.5 °C 1019.5 hPa West 7.9 km/h 14.8 km/h 56 % 0 mm
05:16 -0.8 °C -8.3 °C 1019.9 hPa NW 6.9 km/h 17.7 km/h 57 % 0 mm
05:21 -0.8 °C -8.5 °C 1019.9 hPa WNW 9.8 km/h 16.7 km/h 56 % 0 mm
05:26 -0.9 °C -8.6 °C 1019.9 hPa NW 13.5 km/h 24.1 km/h 56 % 0 mm
05:31 -0.9 °C -8.4 °C 1019.9 hPa WNW 5.6 km/h 14.8 km/h 57 % 0 mm
05:36 -0.9 °C -8.4 °C 1020.2 hPa NW 7.2 km/h 18.5 km/h 57 % 0 mm
05:42 -1 °C -8.4 °C 1020.2 hPa WSW 14.2 km/h 20.4 km/h 57 % 0 mm
05:47 -1 °C -8.7 °C 1020.2 hPa WSW 5.6 km/h 12.9 km/h 56 % 0 mm
05:52 -1 °C -8.7 °C 1020.5 hPa West 4 km/h 7.4 km/h 56 % 0 mm
05:57 -1 °C -8.4 °C 1020.5 hPa WNW 9.2 km/h 20.4 km/h 57 % 0 mm
06:02 -1.1 °C -8.7 °C 1020.5 hPa NW 5.6 km/h 18.5 km/h 56 % 0 mm
06:07 -1.1 °C -8.5 °C 1020.9 hPa WSW 7.4 km/h 25.9 km/h 57 % 0 mm
06:12 -1.1 °C -8.5 °C 1020.9 hPa WSW 13 km/h 18.5 km/h 57 % 0 mm
06:15 -1.1 °C -8.5 °C 1020.9 hPa WNW 9.8 km/h 16.1 km/h 57 % 0 mm
06:20 -1.1 °C -8.5 °C 1020.9 hPa West 5.8 km/h 24.1 km/h 57 % 0 mm
06:25 -1.1 °C -8.3 °C 1020.9 hPa NW 8.7 km/h 16.7 km/h 58 % 0 mm
06:30 -1.1 °C -8.3 °C 1020.9 hPa WSW 6.8 km/h 18.5 km/h 58 % 0 mm
06:35 -1.1 °C -8.3 °C 1020.9 hPa West 11.9 km/h 24.1 km/h 58 % 0 mm
06:40 -1.1 °C -8.5 °C 1020.9 hPa WSW 10.6 km/h 14.8 km/h 57 % 0 mm
06:45 -1.1 °C -8.3 °C 1021.2 hPa WNW 4.2 km/h 14.8 km/h 58 % 0 mm
06:50 -1 °C -8.4 °C 1020.9 hPa West 7.6 km/h 16.7 km/h 57 % 0 mm
06:55 -0.9 °C -8.4 °C 1021.2 hPa WNW 6.3 km/h 16.7 km/h 57 % 0 mm
07:01 -0.9 °C -8.1 °C 1021.2 hPa West 5.3 km/h 11.1 km/h 58 % 0 mm
07:06 -0.8 °C -8 °C 1021.2 hPa NW 12.7 km/h 20.9 km/h 58 % 0 mm
07:11 -0.7 °C -8.4 °C 1021.2 hPa West 9 km/h 18.5 km/h 56 % 0 mm
07:16 -0.6 °C -8.1 °C 1021.2 hPa WSW 13.7 km/h 20.4 km/h 57 % 0 mm
07:21 -0.5 °C -8.2 °C 1021.6 hPa WNW 11.1 km/h 20.4 km/h 56 % 0 mm
07:26 -0.4 °C -8.2 °C 1021.2 hPa West 8.2 km/h 18.5 km/h 56 % 0 mm
07:31 -0.4 °C -8.2 °C 1021.6 hPa WNW 5.6 km/h 20.9 km/h 56 % 0 mm
07:36 -0.3 °C -7.8 °C 1021.6 hPa WNW 8 km/h 9.7 km/h 57 % 0 mm
07:37 -0.3 °C -7.8 °C 1021.6 hPa West 8.2 km/h 14.5 km/h 57 % 0 mm
07:42 -0.3 °C -7.8 °C 1021.6 hPa NW 2.9 km/h 13 km/h 57 % 0 mm
07:47 -0.2 °C -7.7 °C 1021.6 hPa NW 5.8 km/h 11.3 km/h 57 % 0 mm
07:52 -0.1 °C -7.6 °C 1021.6 hPa WNW 11.4 km/h 13 km/h 57 % 0 mm
07:57 0 °C -7.7 °C 1021.9 hPa NW 4.5 km/h 17.7 km/h 56 % 0 mm
08:02 0.1 °C -7.7 °C 1021.9 hPa WNW 12.2 km/h 24.1 km/h 56 % 0 mm
08:07 0.1 °C -7.7 °C 1021.9 hPa NW 7.9 km/h 13 km/h 56 % 0 mm
08:12 0.2 °C -8 °C 1021.9 hPa WNW 10.1 km/h 16.7 km/h 54 % 0 mm
08:17 0.3 °C -7.7 °C 1021.9 hPa WNW 11.4 km/h 18.5 km/h 55 % 0 mm
08:22 0.4 °C -7.6 °C 1021.9 hPa West 14.8 km/h 22.2 km/h 55 % 0 mm
08:27 0.4 °C -7.6 °C 1022.2 hPa WNW 10 km/h 14.8 km/h 55 % 0 mm
08:32 0.6 °C -7.2 °C 1022.2 hPa West 8.9 km/h 14.5 km/h 56 % 0 mm
08:38 0.7 °C -7.6 °C 1022.2 hPa NNW 11.9 km/h 18.5 km/h 54 % 0 mm
08:43 0.8 °C -7.5 °C 1022.2 hPa NW 8.7 km/h 18.5 km/h 54 % 0 mm
08:48 0.8 °C -7.2 °C 1022.2 hPa NW 7.7 km/h 18.5 km/h 55 % 0 mm
08:53 0.8 °C -7.4 °C 1022.2 hPa WNW 6.9 km/h 14.8 km/h 54 % 0 mm
08:58 0.9 °C -7.4 °C 1022.2 hPa West 12.1 km/h 20.4 km/h 54 % 0 mm
09:03 0.9 °C -7.4 °C 1022.2 hPa NW 6.6 km/h 16.1 km/h 54 % 0 mm
09:08 0.9 °C -7.3 °C 1022.2 hPa WNW 9.7 km/h 16.1 km/h 54 % 0 mm
09:13 1.1 °C -7.2 °C 1022.2 hPa WNW 9.8 km/h 9.8 km/h 54 % 0 mm
09:18 1.1 °C -7.4 °C 1022.2 hPa WNW 4.8 km/h 14.5 km/h 53 % 0 mm
09:23 1.2 °C -7.6 °C 1022.2 hPa WNW 11.6 km/h 16.7 km/h 52 % 0 mm
09:25 1.2 °C -7.6 °C 1022.2 hPa WNW 7.4 km/h 13 km/h 52 % 0 mm
09:30 1.3 °C -7.2 °C 1022.2 hPa West 7.6 km/h 17.7 km/h 53 % 0 mm
09:35 1.4 °C -6.9 °C 1022.6 hPa WNW 6.9 km/h 14.5 km/h 54 % 0 mm
09:40 1.6 °C -6.9 °C 1022.2 hPa WNW 12.6 km/h 20.4 km/h 53 % 0 mm
09:45 1.7 °C -7.2 °C 1022.2 hPa NW 11.3 km/h 19.3 km/h 52 % 0 mm
09:50 1.8 °C -7.3 °C 1022.2 hPa West 9.2 km/h 16.7 km/h 51 % 0 mm
09:55 1.7 °C -7.9 °C 1022.2 hPa WSW 9.7 km/h 18.5 km/h 49 % 0 mm
10:00 1.8 °C -7.2 °C 1022.2 hPa WSW 10.8 km/h 18.5 km/h 51 % 0 mm
10:05 2 °C -7.3 °C 1022.2 hPa West 6.8 km/h 20.4 km/h 50 % 0 mm
10:10 2.3 °C -7.1 °C 1022.2 hPa West 6.4 km/h 14.8 km/h 50 % 0 mm
10:15 2.3 °C -7.1 °C 1022.2 hPa West 4.3 km/h 16.7 km/h 50 % 0 mm
10:20 2.4 °C -7.7 °C 1022.2 hPa WNW 7.6 km/h 22.2 km/h 47 % 0 mm
10:25 2.6 °C -7.3 °C 1022.2 hPa West 7.9 km/h 17.7 km/h 48 % 0 mm
10:31 2.7 °C -7.8 °C 1022.2 hPa WNW 9 km/h 20.4 km/h 46 % 0 mm
10:36 2.7 °C -7.5 °C 1022.2 hPa WNW 7.1 km/h 14.8 km/h 47 % 0 mm
10:41 2.8 °C -7.4 °C 1022.2 hPa NW 8.7 km/h 20.4 km/h 47 % 0 mm
10:46 2.8 °C -7.9 °C 1022.6 hPa West 12.7 km/h 19.3 km/h 45 % 0 mm
10:51 2.8 °C -7.7 °C 1022.2 hPa WNW 4.8 km/h 16.7 km/h 46 % 0 mm
10:56 2.9 °C -8.1 °C 1022.2 hPa WSW 6 km/h 18.5 km/h 44 % 0 mm
11:01 3.1 °C -7.7 °C 1022.6 hPa WNW 9.7 km/h 18.5 km/h 45 % 0 mm
11:02 3.1 °C -8.3 °C 1022.6 hPa WNW 11.7 km/h 14.8 km/h 43 % 0 mm
11:08 2.9 °C -8.1 °C 1022.6 hPa NW 10 km/h 24.1 km/h 44 % 0 mm
11:13 2.9 °C -8.5 °C 1022.6 hPa NW 11.7 km/h 24.1 km/h 43 % 0 mm
11:18 2.9 °C -7.8 °C 1022.6 hPa West 9.7 km/h 18.5 km/h 45 % 0 mm
11:23 2.9 °C -8.1 °C 1022.6 hPa WSW 9.3 km/h 18.5 km/h 44 % 0 mm
11:28 2.7 °C -8.1 °C 1022.6 hPa NW 9.3 km/h 14.8 km/h 45 % 0 mm
11:33 2.7 °C -7.8 °C 1022.6 hPa West 8 km/h 14.5 km/h 46 % 0 mm
11:38 2.6 °C -8.5 °C 1022.6 hPa West 2.6 km/h 14.8 km/h 44 % 0 mm
11:43 2.6 °C -8.5 °C 1022.6 hPa WNW 9.7 km/h 22.5 km/h 44 % 0 mm
11:48 2.8 °C -7.9 °C 1022.6 hPa West 4.7 km/h 13 km/h 45 % 0 mm
11:53 3 °C -7.8 °C 1022.6 hPa WNW 8 km/h 25.7 km/h 45 % 0 mm
11:58 3.1 °C -8.3 °C 1022.6 hPa WNW 8.7 km/h 18.5 km/h 43 % 0 mm
12:03 2.8 °C -8.6 °C 1022.6 hPa WNW 12.4 km/h 18.5 km/h 43 % 0 mm
12:08 2.8 °C -8.3 °C 1022.6 hPa NNW 12.6 km/h 20.9 km/h 44 % 0 mm
12:13 2.9 °C -8.2 °C 1022.2 hPa NNW 9.3 km/h 18.5 km/h 44 % 0 mm
12:18 2.8 °C -8.2 °C 1022.2 hPa WSW 5.8 km/h 16.7 km/h 44 % 0 mm
12:23 3 °C -7.5 °C 1022.6 hPa WNW 7.4 km/h 17.7 km/h 46 % 0 mm
12:28 3.1 °C -7.7 °C 1022.6 hPa NW 5.6 km/h 11.1 km/h 45 % 0 mm
12:34 3 °C -7.8 °C 1022.2 hPa North 10.5 km/h 18.5 km/h 45 % 0 mm
12:39 2.9 °C -8.2 °C 1022.2 hPa NW 7.2 km/h 9.7 km/h 44 % 0 mm
12:44 3.1 °C -7.4 °C 1022.2 hPa SW 6.8 km/h 22.2 km/h 46 % 0 mm
12:49 3.3 °C -7.8 °C 1021.9 hPa West 8.7 km/h 14.8 km/h 44 % 0 mm
12:54 3.2 °C -8.2 °C 1022.2 hPa WNW 8.4 km/h 14.8 km/h 43 % 0 mm
12:59 3.1 °C -8.3 °C 1021.9 hPa WSW 8.4 km/h 16.1 km/h 43 % 0 mm
13:04 3.1 °C -8.3 °C 1021.9 hPa NNW 7.6 km/h 22.2 km/h 43 % 0 mm
13:09 3.3 °C -8.4 °C 1021.9 hPa West 9.2 km/h 20.4 km/h 42 % 0 mm
13:14 3.5 °C -7.9 °C 1021.9 hPa NNW 10.9 km/h 16.7 km/h 43 % 0 mm
13:19 3.7 °C -8.7 °C 1021.9 hPa West 9.5 km/h 14.8 km/h 40 % 0 mm
13:24 3.7 °C -8.1 °C 1021.9 hPa WSW 7.7 km/h 13 km/h 42 % 0 mm
13:29 3.8 °C -8.3 °C 1021.9 hPa West 11.4 km/h 18.5 km/h 41 % 0 mm
13:34 3.8 °C -8.6 °C 1021.9 hPa WNW 10.5 km/h 16.7 km/h 40 % 0 mm
13:40 3.8 °C -8.6 °C 1021.6 hPa WNW 9.8 km/h 16.1 km/h 40 % 0 mm
13:45 3.8 °C -8.9 °C 1021.6 hPa WSW 6.6 km/h 16.1 km/h 39 % 0 mm
13:50 3.9 °C -8.8 °C 1021.6 hPa NW 3.2 km/h 7.4 km/h 39 % 0 mm
13:55 4.1 °C -8.3 °C 1021.6 hPa WNW 10.1 km/h 14.8 km/h 40 % 0 mm
14:00 4.2 °C -8.6 °C 1021.6 hPa WNW 9.2 km/h 18.5 km/h 39 % 0 mm
14:05 4.2 °C -8.6 °C 1021.6 hPa NW 10.8 km/h 11.3 km/h 39 % 0 mm
14:10 4.1 °C -8.6 °C 1021.6 hPa NW 4.3 km/h 14.8 km/h 39 % 0 mm
14:15 4.1 °C -8.1 °C 1021.6 hPa NW 3.2 km/h 7.4 km/h 41 % 0 mm
14:20 4 °C -8.7 °C 1021.6 hPa WNW 8.5 km/h 16.7 km/h 39 % 0 mm
14:25 3.7 °C -9.3 °C 1021.6 hPa NW 6.4 km/h 13 km/h 38 % 0 mm
14:30 3.5 °C -8.8 °C 1021.6 hPa WNW 7.9 km/h 17.7 km/h 40 % 0 mm
14:35 3.2 °C -9.4 °C 1021.6 hPa WNW 9.2 km/h 11.1 km/h 39 % 0 mm
14:40 3.1 °C -9.2 °C 1021.6 hPa WSW 9.2 km/h 16.7 km/h 40 % 0 mm
14:45 3.1 °C -9.6 °C 1021.6 hPa WSW 6.3 km/h 14.5 km/h 39 % 0 mm
14:51 3.1 °C -9.9 °C 1021.6 hPa NW 8.7 km/h 13 km/h 38 % 0 mm
14:56 3.1 °C -9.9 °C 1021.6 hPa WNW 7.9 km/h 14.8 km/h 38 % 0 mm
15:01 3 °C -9.9 °C 1021.6 hPa NW 5 km/h 11.1 km/h 38 % 0 mm
15:06 2.9 °C -10 °C 1021.6 hPa West 11.9 km/h 18.5 km/h 38 % 0 mm
15:11 2.9 °C -10.7 °C 1021.2 hPa WSW 6.8 km/h 14.8 km/h 36 % 0 mm
15:16 2.9 °C -11.1 °C 1021.2 hPa North 7.2 km/h 17.7 km/h 35 % 0 mm
15:21 2.9 °C -10.7 °C 1021.6 hPa WNW 6.6 km/h 18.5 km/h 36 % 0 mm
15:26 2.8 °C -11.2 °C 1021.6 hPa WNW 8 km/h 16.7 km/h 35 % 0 mm
15:31 2.8 °C -11.6 °C 1021.6 hPa WNW 9.5 km/h 22.5 km/h 34 % 0 mm
15:36 2.7 °C -10.9 °C 1021.6 hPa West 6.1 km/h 13 km/h 36 % 0 mm
15:41 2.7 °C -11.7 °C 1021.6 hPa WNW 14.5 km/h 24.1 km/h 34 % 0 mm
15:46 2.7 °C -11.3 °C 1021.6 hPa WSW 11.6 km/h 24.1 km/h 35 % 0 mm
15:51 2.7 °C -11.7 °C 1021.6 hPa WNW 8 km/h 16.7 km/h 34 % 0 mm
15:54 2.7 °C -11.3 °C 1021.6 hPa WNW 11.4 km/h 20.4 km/h 35 % 0 mm
16:00 2.7 °C -11.7 °C 1021.6 hPa West 10.6 km/h 22.2 km/h 34 % 0 mm
16:05 2.7 °C -10.9 °C 1021.6 hPa NW 12.7 km/h 22.5 km/h 36 % 0 mm
16:10 2.8 °C -11.2 °C 1021.6 hPa WNW 10 km/h 25.7 km/h 35 % 0 mm
16:15 2.7 °C -12.4 °C 1021.6 hPa WNW 9.7 km/h 20.4 km/h 32 % 0 mm
16:20 2.7 °C -11.7 °C 1021.9 hPa WNW 12.1 km/h 20.4 km/h 34 % 0 mm
16:25 2.6 °C -11.7 °C 1021.9 hPa WNW 8 km/h 9.3 km/h 34 % 0 mm
16:30 2.6 °C -11.8 °C 1021.9 hPa West 6.9 km/h 20.4 km/h 34 % 0 mm
16:35 2.5 °C -11.8 °C 1021.9 hPa West 11.3 km/h 18.5 km/h 34 % 0 mm
16:40 2.5 °C -11.8 °C 1021.9 hPa West 9.3 km/h 13 km/h 34 % 0 mm
16:45 2.5 °C -10.7 °C 1021.9 hPa WSW 8.9 km/h 18.5 km/h 37 % 0 mm
16:50 2.4 °C -11.2 °C 1021.9 hPa WNW 7.4 km/h 14.8 km/h 36 % 0 mm
16:55 2.4 °C -11.5 °C 1021.9 hPa West 6.8 km/h 13 km/h 35 % 0 mm
17:00 2.4 °C -11.5 °C 1021.9 hPa NW 10.8 km/h 18.5 km/h 35 % 0 mm
17:06 2.4 °C -11.6 °C 1022.2 hPa West 10 km/h 18.5 km/h 35 % 0 mm
17:11 2.3 °C -11.6 °C 1022.2 hPa WNW 8.9 km/h 17.7 km/h 35 % 0 mm
17:16 2.3 °C -11.3 °C 1022.2 hPa West 9 km/h 18.5 km/h 36 % 0 mm
17:21 2.3 °C -10.9 °C 1022.2 hPa WSW 7.7 km/h 19.3 km/h 37 % 0 mm
17:26 2.2 °C -11 °C 1022.6 hPa SW 9.3 km/h 19.3 km/h 37 % 0 mm
17:31 2.2 °C -10.7 °C 1022.6 hPa NNW 15.1 km/h 27.8 km/h 38 % 0 mm
17:36 2.2 °C -10.4 °C 1022.6 hPa West 6.4 km/h 16.7 km/h 39 % 0 mm
17:41 2.1 °C -10.4 °C 1022.6 hPa WNW 6.8 km/h 16.7 km/h 39 % 0 mm
17:51 2 °C -10.8 °C 1022.6 hPa WNW 9.5 km/h 22.2 km/h 38 % 0 mm
17:56 2.1 °C -10.8 °C 1022.6 hPa WNW 10.8 km/h 14.8 km/h 38 % 0 mm
18:01 2.1 °C -10.4 °C 1022.9 hPa NW 13.2 km/h 24.1 km/h 39 % 0 mm
18:06 2.2 °C -10.7 °C 1022.9 hPa NNW 17.2 km/h 29.6 km/h 38 % 0 mm
18:11 2.3 °C -9.7 °C 1022.9 hPa WNW 16.7 km/h 33.3 km/h 41 % 0 mm
18:17 2.2 °C -8.6 °C 1023.6 hPa WNW 16.1 km/h 33.3 km/h 45 % 0 mm
18:22 2 °C -8.2 °C 1023.6 hPa West 13.8 km/h 25.7 km/h 47 % 0 mm
18:27 1.8 °C -10.1 °C 1023.6 hPa WNW 13 km/h 29 km/h 41 % 0 mm
18:32 1.6 °C -9.9 °C 1023.6 hPa West 15 km/h 25.9 km/h 42 % 0 mm
18:37 1.5 °C -9.4 °C 1023.6 hPa WNW 19.5 km/h 31.5 km/h 44 % 0 mm
18:42 1.3 °C -9.3 °C 1023.9 hPa West 12.6 km/h 24.1 km/h 45 % 0 mm
18:47 1.2 °C -8.3 °C 1024.3 hPa SW 10.9 km/h 29.6 km/h 49 % 0 mm
18:52 1.1 °C -7.7 °C 1024.3 hPa West 13.4 km/h 29.6 km/h 52 % 0 mm
18:57 0.9 °C -7.3 °C 1024.6 hPa NW 7.4 km/h 18.5 km/h 54 % 0 mm
19:02 0.8 °C -7.3 °C 1024.6 hPa WNW 17.5 km/h 29 km/h 55 % 0 mm
19:07 0.7 °C -7.6 °C 1024.6 hPa NNW 14.3 km/h 27.8 km/h 54 % 0 mm
19:12 0.7 °C -7.8 °C 1024.9 hPa NNW 19 km/h 35.2 km/h 53 % 0 mm
19:17 0.5 °C -7.5 °C 1024.9 hPa West 16.9 km/h 27.4 km/h 55 % 0 mm
19:23 0.4 °C -7.6 °C 1024.9 hPa WNW 15.4 km/h 27.8 km/h 55 % 0 mm
19:28 0.3 °C -6.8 °C 1024.9 hPa NNW 14.3 km/h 22.2 km/h 59 % 0 mm
19:33 0.3 °C -6.6 °C 1024.9 hPa NW 10.3 km/h 22.2 km/h 60 % 0 mm
19:38 0.3 °C -6.8 °C 1024.9 hPa West 12.4 km/h 18.5 km/h 59 % 0 mm
19:43 0.2 °C -7.1 °C 1024.9 hPa WNW 9.2 km/h 25.9 km/h 58 % 0 mm
19:48 0 °C -7.3 °C 1025.3 hPa West 7.2 km/h 18.5 km/h 58 % 0 mm
19:53 -0.1 °C -7.4 °C 1025.3 hPa WNW 8.4 km/h 25.9 km/h 58 % 0 mm
19:58 -0.2 °C -7 °C 1025.3 hPa North 12.9 km/h 24.1 km/h 60 % 0 mm
20:03 -0.2 °C -7.1 °C 1025.3 hPa NW 9.7 km/h 24.1 km/h 60 % 0 mm
20:08 -0.3 °C -7.3 °C 1025.3 hPa NW 9.7 km/h 33.8 km/h 59 % 0 mm
20:13 -0.3 °C -7.6 °C 1025.6 hPa NW 14.5 km/h 27.4 km/h 58 % 0 mm
20:18 -0.4 °C -7.7 °C 1025.6 hPa NW 14.5 km/h 25.7 km/h 58 % 0 mm
20:23 -0.4 °C -7.5 °C 1025.6 hPa NW 16.1 km/h 29 km/h 59 % 0 mm
20:28 -0.5 °C -8.9 °C 1026 hPa NW 16.1 km/h 41.8 km/h 53 % 0 mm
20:33 -0.6 °C -9.5 °C 1026 hPa WNW 16.1 km/h 37 km/h 51 % 0 mm
20:38 -0.7 °C -9.3 °C 1026.3 hPa WNW 16.1 km/h 32.2 km/h 52 % 0 mm
20:43 -0.7 °C -8.9 °C 1026.3 hPa WNW 19.3 km/h 38.6 km/h 54 % 0 mm
20:48 -0.8 °C -9.2 °C 1026.3 hPa NW 16.1 km/h 40.2 km/h 53 % 0 mm
20:53 -0.9 °C -9.5 °C 1026.3 hPa NW 15.3 km/h 31.5 km/h 52 % 0 mm
20:58 -0.9 °C -9.3 °C 1026.3 hPa North 12.9 km/h 22.2 km/h 53 % 0 mm
21:03 -1 °C -9.6 °C 1026.6 hPa NW 9 km/h 29 km/h 52 % 0 mm
21:08 -1.1 °C -9.7 °C 1027 hPa WNW 16.1 km/h 33.8 km/h 52 % 0 mm
21:13 -1.1 °C -10.2 °C 1027 hPa NW 19.8 km/h 40.7 km/h 50 % 0 mm
21:18 -1.2 °C -10.1 °C 1027 hPa NW 13.7 km/h 24.1 km/h 51 % 0 mm
21:23 -1.3 °C -11.2 °C 1027 hPa North 14.2 km/h 27.8 km/h 47 % 0 mm
21:28 -1.4 °C -11.9 °C 1027 hPa NW 15.8 km/h 31.5 km/h 45 % 0 mm
21:34 -1.6 °C -11.7 °C 1027.3 hPa West 14.3 km/h 31.5 km/h 46 % 0 mm
21:36 -1.7 °C -11.8 °C 1027.3 hPa NW 17.5 km/h 29.6 km/h 46 % 0 mm
21:41 -1.8 °C -11.6 °C 1027.3 hPa WNW 16.7 km/h 31.5 km/h 47 % 0 mm
21:42 -1.8 °C -11.6 °C 1027.3 hPa WNW 16.4 km/h 25.9 km/h 47 % 0 mm
21:47 -1.9 °C -12 °C 1027.7 hPa NNW 25.1 km/h 42.6 km/h 46 % 0 mm
21:52 -2 °C -13.5 °C 1027.7 hPa NW 26.4 km/h 51.8 km/h 41 % 0 mm
21:57 -2.1 °C -13.3 °C 1027.7 hPa WNW 13.7 km/h 31.5 km/h 42 % 0 mm
21:59 -2.2 °C -13.7 °C 1027.7 hPa WSW 16.7 km/h 37 km/h 41 % 0 mm
22:04 -2.3 °C -13.8 °C 1027.7 hPa NNW 15 km/h 42.6 km/h 41 % 0 mm
22:09 -2.4 °C -13 °C 1027.7 hPa NNW 17.2 km/h 22.2 km/h 44 % 0 mm
22:14 -2.4 °C -13.6 °C 1027.7 hPa WNW 14.6 km/h 35.2 km/h 42 % 0 mm
22:19 -2.5 °C -13.4 °C 1028 hPa WNW 24.3 km/h 37 km/h 43 % 0 mm
22:24 -2.6 °C -12.1 °C 1028 hPa NW 15.9 km/h 31.5 km/h 48 % 0 mm
22:29 -2.6 °C -12.7 °C 1028 hPa West 22.7 km/h 37 km/h 46 % 0 mm
22:34 -2.7 °C -13.3 °C 1028.3 hPa North 20.8 km/h 35.2 km/h 44 % 0 mm
22:39 -2.9 °C -14.1 °C 1028 hPa WNW 17.1 km/h 31.5 km/h 42 % 0 mm
22:44 -3.1 °C -13.6 °C 1028.3 hPa WNW 13.5 km/h 32.2 km/h 44 % 0 mm
22:49 -3.2 °C -14.3 °C 1028 hPa NNW 17.5 km/h 31.5 km/h 42 % 0 mm
22:54 -3.3 °C -14.4 °C 1028 hPa NW 17.9 km/h 29.6 km/h 42 % 0 mm
23:00 -3.4 °C -14.2 °C 1028.3 hPa WNW 15 km/h 37 km/h 43 % 0 mm
23:05 -3.4 °C -14.3 °C 1028.3 hPa West 19.2 km/h 38.9 km/h 43 % 0 mm
23:10 -3.5 °C -14.3 °C 1028.3 hPa NNW 9.5 km/h 38.9 km/h 43 % 0 mm
23:15 -3.5 °C -14.3 °C 1028.3 hPa NNW 23.3 km/h 45.1 km/h 43 % 0 mm
23:20 -3.6 °C -14.1 °C 1028.3 hPa WSW 15.9 km/h 31.5 km/h 44 % 0 mm
23:25 -3.6 °C -13.5 °C 1028.7 hPa North 15.9 km/h 24.1 km/h 46 % 0 mm
23:30 -3.6 °C -13.5 °C 1028.7 hPa NNE 15.1 km/h 18.5 km/h 46 % 0 mm
23:35 -3.7 °C -13.9 °C 1029 hPa North 14.5 km/h 27.8 km/h 45 % 0 mm
23:40 -3.7 °C -14.2 °C 1028.7 hPa NNW 17.4 km/h 29.6 km/h 44 % 0 mm
23:45 -3.7 °C -14.2 °C 1028.7 hPa WNW 16.9 km/h 29.6 km/h 44 % 0 mm
23:50 -3.8 °C -13.7 °C 1029 hPa NW 9.2 km/h 18.5 km/h 46 % 0 mm
23:55 -3.8 °C -13.4 °C 1029 hPa NNW 12.7 km/h 25.9 km/h 47 % 0 mm
Crab Meadow Weather
Compliments of Weather Underground - 3 mb

Script developed by  Jim McMurry - jmcmurry@mwt.net Adapted for the template by  Wim van der Kuil - Leuven-Template.eu

Weather Terms: Tornado - A violently rotating column of air, from a thunderstorm, in contact with the ground.